createdAt,value
2023-04-15T00:02:08.786Z,5.64
2023-04-15T00:04:37.967Z,5.64
2023-04-15T00:07:05.681Z,5.62
2023-04-15T00:09:34.044Z,5.58
2023-04-15T00:12:02.116Z,5.51
2023-04-15T00:14:31.201Z,5.43
2023-04-15T00:17:00.560Z,5.37
2023-04-15T00:19:28.564Z,5.31
2023-04-15T00:21:57.155Z,5.26
2023-04-15T00:24:25.686Z,5.25
2023-04-15T00:26:53.844Z,5.25
2023-04-15T00:29:21.868Z,5.22
2023-04-15T00:31:49.697Z,5.13
2023-04-15T00:34:17.927Z,5.06
2023-04-15T00:36:45.604Z,5.00
2023-04-15T00:39:13.524Z,4.93
2023-04-15T00:41:41.110Z,4.88
2023-04-15T00:44:09.512Z,4.85
2023-04-15T00:46:37.532Z,4.79
2023-04-15T00:49:05.154Z,4.75
2023-04-15T00:51:33.909Z,4.73
2023-04-15T00:54:02.288Z,4.71
2023-04-15T00:56:29.951Z,4.69
2023-04-15T00:58:58.199Z,4.67
2023-04-15T01:01:26.248Z,4.65
2023-04-15T01:03:54.161Z,4.63
2023-04-15T01:06:22.470Z,4.61
2023-04-15T01:08:50.092Z,4.57
2023-04-15T01:11:18.018Z,4.54
2023-04-15T01:13:45.667Z,4.51
2023-04-15T01:16:13.669Z,4.48
2023-04-15T01:18:41.678Z,4.46
2023-04-15T01:21:09.825Z,4.44
2023-04-15T01:23:38.874Z,4.41
2023-04-15T01:26:06.488Z,4.40
2023-04-15T01:28:34.287Z,4.38
2023-04-15T01:31:02.130Z,4.39
2023-04-15T01:33:29.732Z,4.44
2023-04-15T01:35:57.689Z,4.49
2023-04-15T01:38:25.402Z,4.52
2023-04-15T01:40:53.519Z,4.55
2023-04-15T01:43:23.295Z,4.58
2023-04-15T01:45:50.881Z,4.60
2023-04-15T01:48:19.187Z,4.65
2023-04-15T01:50:46.829Z,4.70
2023-04-15T01:53:14.412Z,4.72
2023-04-15T01:55:42.187Z,4.73
2023-04-15T01:58:10.065Z,4.73
2023-04-15T02:00:38.041Z,4.72
2023-04-15T02:03:05.722Z,4.68
2023-04-15T02:05:33.975Z,4.62
2023-04-15T02:08:01.643Z,4.57
2023-04-15T02:10:29.215Z,4.50
2023-04-15T02:12:57.358Z,4.38
2023-04-15T02:15:25.170Z,4.28
2023-04-15T02:17:55.409Z,4.16
2023-04-15T02:20:23.501Z,4.08
2023-04-15T02:22:51.065Z,4.02
2023-04-15T02:25:19.048Z,3.95
2023-04-15T02:27:47.074Z,3.90
2023-04-15T02:30:14.695Z,3.87
2023-04-15T02:32:45.315Z,3.82
2023-04-15T02:35:13.620Z,3.79
2023-04-15T02:37:44.118Z,3.75
2023-04-15T02:40:12.514Z,3.73
2023-04-15T02:42:40.221Z,3.71
2023-04-15T02:45:08.113Z,3.69
2023-04-15T02:47:36.171Z,3.69
2023-04-15T02:50:04.573Z,3.72
2023-04-15T02:52:32.187Z,3.75
2023-04-15T02:55:00.972Z,3.76
2023-04-15T02:57:29.829Z,3.77
2023-04-15T02:59:57.413Z,3.74
2023-04-15T03:02:25.074Z,3.73
2023-04-15T03:04:52.756Z,3.73
2023-04-15T03:07:20.336Z,3.72
2023-04-15T03:09:48.046Z,3.72
2023-04-15T03:12:16.048Z,3.72
2023-04-15T03:14:44.044Z,3.71
2023-04-15T03:17:11.648Z,3.71
2023-04-15T03:19:39.350Z,3.71
2023-04-15T03:22:06.959Z,3.69
2023-04-15T03:24:34.549Z,3.69
2023-04-15T03:27:03.173Z,3.70
2023-04-15T03:29:30.848Z,3.72
2023-04-15T03:31:58.451Z,3.69
2023-04-15T03:34:27.419Z,3.65
2023-04-15T03:36:55.058Z,3.61
2023-04-15T03:39:22.691Z,3.58
2023-04-15T03:41:50.365Z,3.54
2023-04-15T03:44:18.024Z,3.52
2023-04-15T03:46:45.954Z,3.50
2023-04-15T03:49:13.863Z,3.48
2023-04-15T03:51:41.819Z,3.46
2023-04-15T03:54:09.409Z,3.46
2023-04-15T03:56:37.518Z,3.43
2023-04-15T03:59:05.092Z,3.45
2023-04-15T04:01:32.712Z,3.46
2023-04-15T04:04:00.836Z,3.46
2023-04-15T04:06:28.570Z,3.49
2023-04-15T04:08:56.823Z,3.49
2023-04-15T04:11:24.457Z,3.49
2023-04-15T04:13:51.993Z,3.47
2023-04-15T04:16:20.005Z,3.47
2023-04-15T04:18:48.066Z,3.47
2023-04-15T04:21:15.750Z,3.47
2023-04-15T04:23:43.398Z,3.48
2023-04-15T04:26:11.138Z,3.48
2023-04-15T04:28:40.903Z,3.46
2023-04-15T04:31:08.675Z,3.41
2023-04-15T04:33:36.321Z,3.35
2023-04-15T04:36:03.999Z,3.31
2023-04-15T04:38:31.575Z,3.26
2023-04-15T04:41:00.032Z,3.22
2023-04-15T04:43:27.624Z,3.18
2023-04-15T04:45:55.308Z,3.17
2023-04-15T04:48:23.128Z,3.17
2023-04-15T04:50:50.697Z,3.19
2023-04-15T04:53:18.650Z,3.21
2023-04-15T04:55:46.381Z,3.25
2023-04-15T04:58:13.986Z,3.28
2023-04-15T05:00:42.214Z,3.33
2023-04-15T05:03:10.174Z,3.40
2023-04-15T05:05:39.913Z,3.46
2023-04-15T05:08:07.488Z,3.53
2023-04-15T05:10:35.127Z,3.60
2023-04-15T05:13:02.930Z,3.68
2023-04-15T05:15:30.749Z,3.72
2023-04-15T05:17:58.813Z,3.76
2023-04-15T05:20:26.584Z,3.81
2023-04-15T05:22:54.151Z,3.86
2023-04-15T05:25:23.496Z,3.92
2023-04-15T05:27:51.079Z,3.98
2023-04-15T05:30:19.059Z,4.03
2023-04-15T05:32:47.030Z,4.07
2023-04-15T05:35:14.633Z,4.07
2023-04-15T05:37:42.415Z,4.09
2023-04-15T05:40:10.880Z,4.12
2023-04-15T05:42:38.871Z,4.18
2023-04-15T05:45:09.203Z,4.23
2023-04-15T05:47:37.523Z,4.29
2023-04-15T05:50:05.154Z,4.38
2023-04-15T05:52:32.759Z,4.50
2023-04-15T05:55:00.956Z,4.60
2023-04-15T05:57:28.559Z,4.67
2023-04-15T05:59:57.420Z,4.78
2023-04-15T06:02:25.269Z,4.90
2023-04-15T06:04:53.079Z,5.01
2023-04-15T06:07:21.094Z,5.15
2023-04-15T06:09:49.688Z,5.24
2023-04-15T06:12:17.285Z,5.34
2023-04-15T06:14:45.337Z,5.41
2023-04-15T06:17:15.079Z,5.47
2023-04-15T06:19:43.035Z,5.49
2023-04-15T06:22:10.617Z,5.53
2023-04-15T06:24:38.337Z,5.54
2023-04-15T06:27:06.150Z,5.56
2023-04-15T06:29:33.799Z,5.60
2023-04-15T06:32:01.746Z,5.67
2023-04-15T06:34:29.336Z,5.72
2023-04-15T06:36:57.606Z,5.78
2023-04-15T06:39:25.385Z,5.86
2023-04-15T06:41:53.127Z,5.92
2023-04-15T06:44:20.846Z,6.03
2023-04-15T06:46:48.630Z,6.15
2023-04-15T06:49:16.206Z,6.27
2023-04-15T06:51:43.957Z,6.40
2023-04-15T06:54:12.261Z,6.53
2023-04-15T06:56:40.312Z,6.65
2023-04-15T06:59:08.756Z,6.78
2023-04-15T07:01:36.675Z,6.91
2023-04-15T07:04:04.594Z,7.03
2023-04-15T07:06:32.897Z,7.12
2023-04-15T07:09:02.381Z,7.22
2023-04-15T07:11:30.195Z,7.30
2023-04-15T07:13:57.794Z,7.42
2023-04-15T07:16:28.598Z,7.53
2023-04-15T07:18:57.401Z,7.65
2023-04-15T07:21:25.004Z,7.78
2023-04-15T07:23:52.799Z,7.91
2023-04-15T07:26:20.601Z,8.03
2023-04-15T07:28:48.664Z,8.12
2023-04-15T07:31:16.737Z,8.24
2023-04-15T07:33:44.765Z,8.37
2023-04-15T07:36:12.364Z,8.49
2023-04-15T07:38:40.573Z,8.62
2023-04-15T07:41:08.414Z,8.74
2023-04-15T07:43:36.027Z,8.85
2023-04-15T07:46:04.034Z,9.01
2023-04-15T07:48:31.682Z,9.17
2023-04-15T07:50:59.295Z,9.32
2023-04-15T07:53:26.970Z,9.48
2023-04-15T07:55:54.680Z,9.63
2023-04-15T07:58:22.710Z,9.78
2023-04-15T08:00:50.540Z,9.96
2023-04-15T08:03:18.658Z,10.11
2023-04-15T08:05:47.414Z,10.25
2023-04-15T08:08:15.091Z,10.37
2023-04-15T08:10:43.160Z,10.43
2023-04-15T08:13:11.030Z,10.49
2023-04-15T08:15:38.967Z,10.53
2023-04-15T08:18:07.445Z,10.58
2023-04-15T08:20:35.508Z,10.62
2023-04-15T08:23:03.812Z,10.66
2023-04-15T08:25:31.519Z,10.69
2023-04-15T08:27:59.147Z,10.68
2023-04-15T08:30:26.903Z,10.66
2023-04-15T08:32:54.885Z,10.66
2023-04-15T08:35:22.597Z,10.65
2023-04-15T08:37:50.420Z,10.69
2023-04-15T08:40:18.146Z,10.76
2023-04-15T08:42:50.538Z,10.83
2023-04-15T08:45:18.367Z,10.90
2023-04-15T08:47:46.145Z,10.92
2023-04-15T08:50:14.002Z,10.90
2023-04-15T08:52:41.690Z,10.92
2023-04-15T08:55:09.859Z,10.93
2023-04-15T08:57:37.546Z,10.94
2023-04-15T09:00:05.933Z,10.98
2023-04-15T09:02:33.852Z,11.02
2023-04-15T09:05:02.569Z,11.07
2023-04-15T09:07:30.418Z,11.05
2023-04-15T09:09:58.322Z,11.02
2023-04-15T09:12:26.469Z,10.99
2023-04-15T09:14:54.367Z,10.95
2023-04-15T09:17:22.554Z,10.95
2023-04-15T09:19:50.507Z,10.94
2023-04-15T09:22:18.307Z,10.93
2023-04-15T09:24:47.352Z,10.95
2023-04-15T09:27:15.578Z,10.96
2023-04-15T09:29:43.756Z,10.93
2023-04-15T09:32:11.605Z,10.96
2023-04-15T09:34:39.315Z,10.95
2023-04-15T09:37:08.079Z,10.98
2023-04-15T09:39:36.182Z,11.04
2023-04-15T09:42:03.967Z,11.06
2023-04-15T09:44:32.256Z,11.06
2023-04-15T09:47:00.097Z,11.01
2023-04-15T09:49:29.205Z,10.95
2023-04-15T09:52:04.978Z,10.92
2023-04-15T09:54:34.338Z,10.94
2023-04-15T09:57:02.184Z,10.93
2023-04-15T09:59:30.656Z,10.93
2023-04-15T10:01:58.711Z,10.91
2023-04-15T10:04:26.903Z,10.90
2023-04-15T10:06:55.273Z,10.87
2023-04-15T10:09:23.200Z,10.86
2023-04-15T10:11:51.581Z,10.92
2023-04-15T10:14:19.479Z,11.02
2023-04-15T10:16:49.190Z,11.06
2023-04-15T10:19:17.376Z,11.06
2023-04-15T10:21:45.361Z,11.02
2023-04-15T10:24:13.488Z,10.98
2023-04-15T10:26:41.458Z,10.92
2023-04-15T10:29:09.485Z,10.86
2023-04-15T10:31:38.510Z,10.80
2023-04-15T10:34:06.869Z,10.75
2023-04-15T10:36:34.980Z,10.70
2023-04-15T10:39:03.028Z,10.69
2023-04-15T10:41:31.497Z,10.70
2023-04-15T10:43:59.336Z,10.70
2023-04-15T10:46:27.225Z,10.70
2023-04-15T10:48:55.568Z,10.68
2023-04-15T10:51:23.445Z,10.63
2023-04-15T10:53:51.669Z,10.61
2023-04-15T10:56:19.608Z,10.57
2023-04-15T10:58:47.573Z,10.51
2023-04-15T11:01:15.928Z,10.44
2023-04-15T11:03:44.029Z,10.38
2023-04-15T11:06:12.121Z,10.32
2023-04-15T11:08:40.014Z,10.26
2023-04-15T11:11:07.891Z,10.23
2023-04-15T11:13:36.725Z,10.21
2023-04-15T11:16:04.971Z,10.18
2023-04-15T11:18:33.191Z,10.14
2023-04-15T11:21:01.356Z,10.10
2023-04-15T11:23:29.327Z,10.09
2023-04-15T11:25:57.756Z,10.10
2023-04-15T11:28:25.712Z,10.14
2023-04-15T11:30:54.301Z,10.15
2023-04-15T11:33:22.855Z,10.15
2023-04-15T11:35:50.784Z,10.14
2023-04-15T11:38:19.493Z,10.12
2023-04-15T11:40:47.508Z,10.09
2023-04-15T11:43:16.133Z,10.07
2023-04-15T11:45:44.100Z,10.04
2023-04-15T11:48:11.981Z,10.03
2023-04-15T11:50:41.382Z,10.02
2023-04-15T11:53:09.176Z,10.04
2023-04-15T11:55:37.148Z,10.05
2023-04-15T11:58:05.084Z,10.09
2023-04-15T12:00:32.965Z,10.10
2023-04-15T12:03:01.383Z,10.10
2023-04-15T12:05:29.285Z,10.13
2023-04-15T12:07:57.195Z,10.15
2023-04-15T12:10:25.244Z,10.17
2023-04-15T12:12:53.355Z,10.20
2023-04-15T12:15:21.515Z,10.21
2023-04-15T12:17:51.546Z,10.24
2023-04-15T12:20:20.492Z,10.20
2023-04-15T12:22:49.074Z,10.19
2023-04-15T12:25:17.028Z,10.15
2023-04-15T12:27:45.248Z,10.15
2023-04-15T12:30:13.263Z,10.15
2023-04-15T12:32:43.448Z,10.14
2023-04-15T12:35:11.963Z,10.14
2023-04-15T12:37:39.717Z,10.14
2023-04-15T12:40:08.120Z,10.13
2023-04-15T12:42:36.410Z,10.13
2023-04-15T12:45:04.284Z,10.13
2023-04-15T12:47:32.749Z,10.13
2023-04-15T12:50:00.867Z,10.13
2023-04-15T12:52:29.050Z,10.17
2023-04-15T12:54:57.158Z,10.20
2023-04-15T12:57:25.125Z,10.24
2023-04-15T12:59:53.013Z,10.24
2023-04-15T13:02:21.660Z,10.25
2023-04-15T13:04:50.494Z,10.24
2023-04-15T13:07:18.254Z,10.23
2023-04-15T13:09:46.142Z,10.26
2023-04-15T13:12:15.564Z,10.27
2023-04-15T13:14:43.500Z,10.23
2023-04-15T13:17:11.858Z,10.20
2023-04-15T13:19:39.702Z,10.17
2023-04-15T13:22:08.748Z,10.16
2023-04-15T13:24:37.338Z,10.16
2023-04-15T13:27:05.845Z,10.15
2023-04-15T13:29:33.950Z,10.14
2023-04-15T13:32:01.942Z,10.15
2023-04-15T13:34:31.002Z,10.16
2023-04-15T13:36:58.981Z,10.16
2023-04-15T13:39:26.989Z,10.16
2023-04-15T13:41:57.942Z,10.15
2023-04-15T13:44:26.397Z,10.14
2023-04-15T13:46:54.443Z,10.13
2023-04-15T13:49:24.112Z,10.13
2023-04-15T13:51:52.035Z,10.12
2023-04-15T13:54:20.549Z,10.11
2023-04-15T13:56:48.378Z,10.12
2023-04-15T13:59:16.283Z,10.12
2023-04-15T14:01:46.155Z,10.13
2023-04-15T14:04:14.091Z,10.12
2023-04-15T14:06:42.450Z,10.11
2023-04-15T14:09:10.487Z,10.10
2023-04-15T14:11:38.797Z,10.09
2023-04-15T14:14:07.084Z,10.10
2023-04-15T14:16:35.124Z,10.10
2023-04-15T14:19:03.725Z,10.11
2023-04-15T14:21:32.818Z,10.11
2023-04-15T14:24:00.797Z,10.13
2023-04-15T14:26:28.902Z,10.15
2023-04-15T14:28:57.189Z,10.15
2023-04-15T14:31:25.554Z,10.14
2023-04-15T14:33:53.420Z,10.11
2023-04-15T14:36:21.300Z,10.08
2023-04-15T14:38:49.322Z,10.05
2023-04-15T14:41:17.790Z,10.04
2023-04-15T14:43:46.275Z,10.03
2023-04-15T14:46:14.722Z,10.01
2023-04-15T14:48:42.598Z,9.98
2023-04-15T14:51:10.964Z,9.95
2023-04-15T14:53:38.916Z,9.91
2023-04-15T14:56:07.489Z,9.89
2023-04-15T14:58:35.267Z,9.86
2023-04-15T15:01:03.386Z,9.85
2023-04-15T15:03:31.727Z,9.85
2023-04-15T15:05:59.664Z,9.85
2023-04-15T15:08:27.943Z,9.83
2023-04-15T15:10:55.832Z,9.81
2023-04-15T15:13:23.845Z,9.80
2023-04-15T15:15:52.152Z,9.76
2023-04-15T15:18:20.295Z,9.70
2023-04-15T15:20:48.755Z,9.69
2023-04-15T15:23:16.749Z,9.65
2023-04-15T15:25:44.683Z,9.62
2023-04-15T15:28:12.766Z,9.61
2023-04-15T15:30:40.604Z,9.60
2023-04-15T15:33:08.733Z,9.60
2023-04-15T15:35:36.565Z,9.58
2023-04-15T15:38:04.438Z,9.56
2023-04-15T15:40:36.145Z,9.54
2023-04-15T15:43:04.000Z,9.52
2023-04-15T15:45:32.382Z,9.50
2023-04-15T15:48:00.465Z,9.47
2023-04-15T15:50:28.435Z,9.45
2023-04-15T15:52:56.624Z,9.42
2023-04-15T15:55:25.524Z,9.39
2023-04-15T15:57:53.638Z,9.36
2023-04-15T16:00:21.615Z,9.32
2023-04-15T16:03:05.774Z,9.27
2023-04-15T16:05:35.100Z,9.23
2023-04-15T16:08:03.271Z,9.18
2023-04-15T16:10:31.131Z,9.13
2023-04-15T16:12:59.094Z,9.11
2023-04-15T16:15:26.949Z,9.10
2023-04-15T16:17:55.041Z,9.10
2023-04-15T16:20:23.510Z,9.10
2023-04-15T16:22:51.975Z,9.09
2023-04-15T16:25:19.882Z,9.10
2023-04-15T16:28:00.919Z,9.10
2023-04-15T16:30:31.861Z,9.09
2023-04-15T16:32:59.962Z,9.07
2023-04-15T16:35:28.585Z,9.08
2023-04-15T16:37:56.528Z,9.08
2023-04-15T16:40:24.484Z,9.08
2023-04-15T16:42:54.524Z,9.06
2023-04-15T16:45:22.652Z,9.05
2023-04-15T16:47:50.635Z,9.05
2023-04-15T16:50:18.722Z,9.03
2023-04-15T16:52:46.621Z,9.04
2023-04-15T16:55:14.958Z,9.02
2023-04-15T16:58:00.461Z,9.03
2023-04-15T17:00:30.812Z,9.04
2023-04-15T17:02:58.798Z,9.02
2023-04-15T17:05:28.137Z,9.03
2023-04-15T17:07:56.247Z,9.02
2023-04-15T17:10:24.287Z,9.03
2023-04-15T17:12:52.870Z,9.03
2023-04-15T17:15:20.890Z,9.02
2023-04-15T17:17:49.204Z,9.01
2023-04-15T17:20:17.803Z,9.02
2023-04-15T17:22:45.831Z,9.01
2023-04-15T17:25:13.918Z,9.01
2023-04-15T17:27:41.763Z,9.01
2023-04-15T17:30:10.510Z,9.00
2023-04-15T17:32:39.783Z,9.01
2023-04-15T17:35:07.810Z,8.99
2023-04-15T17:37:36.141Z,8.99
2023-04-15T17:40:05.857Z,8.98
2023-04-15T17:42:35.848Z,8.97
2023-04-15T17:45:03.823Z,8.97
2023-04-15T17:47:32.588Z,8.96
2023-04-15T17:50:00.568Z,8.94
2023-04-15T17:52:28.538Z,8.94
2023-04-15T17:54:57.241Z,8.94
2023-04-15T17:57:25.359Z,8.94
2023-04-15T17:59:53.265Z,8.93
2023-04-15T18:02:21.304Z,8.94
2023-04-15T18:04:49.491Z,8.95
2023-04-15T18:07:18.498Z,8.95
2023-04-15T18:09:46.695Z,8.93
2023-04-15T18:12:14.715Z,8.95
2023-04-15T18:14:42.625Z,8.97
2023-04-15T18:17:10.464Z,8.96
2023-04-15T18:19:38.193Z,8.95
2023-04-15T18:22:06.179Z,8.95
2023-04-15T18:24:33.946Z,8.95
2023-04-15T18:27:02.463Z,8.94
2023-04-15T18:29:31.867Z,8.93
2023-04-15T18:32:00.980Z,8.93
2023-04-15T18:34:28.799Z,8.92
2023-04-15T18:36:56.655Z,8.92
2023-04-15T18:39:24.518Z,8.91
2023-04-15T18:41:52.442Z,8.92
2023-04-15T18:44:20.846Z,8.90
2023-04-15T18:46:48.696Z,8.89
2023-04-15T18:49:16.488Z,8.89
2023-04-15T18:51:44.443Z,8.90
2023-04-15T18:54:12.819Z,8.90
2023-04-15T18:56:41.188Z,8.89
2023-04-15T18:59:29.325Z,8.87
2023-04-15T19:01:56.908Z,8.87
2023-04-15T19:04:24.973Z,8.87
2023-04-15T19:06:53.609Z,8.87
2023-04-15T19:09:21.464Z,8.85
2023-04-15T19:11:49.438Z,8.86
2023-04-15T19:14:17.727Z,8.87
2023-04-15T19:16:45.705Z,8.86
2023-04-15T19:19:15.140Z,8.85
2023-04-15T19:21:43.108Z,8.86
2023-04-15T19:24:10.963Z,8.85
2023-04-15T19:26:38.981Z,8.84
2023-04-15T19:29:07.083Z,8.83
2023-04-15T19:31:35.461Z,8.83
2023-04-15T19:34:03.464Z,8.82
2023-04-15T19:36:31.801Z,8.81
2023-04-15T19:38:59.651Z,8.79
2023-04-15T19:41:27.531Z,8.78
2023-04-15T19:43:56.182Z,8.77
2023-04-15T19:46:24.290Z,8.75
2023-04-15T19:48:53.395Z,8.74
2023-04-15T19:51:21.458Z,8.75
2023-04-15T19:53:49.831Z,8.74
2023-04-15T19:56:18.438Z,8.76
2023-04-15T19:58:51.053Z,8.77
2023-04-15T20:01:19.049Z,8.79
2023-04-15T20:03:46.937Z,8.79
2023-04-15T20:06:15.011Z,8.79
2023-04-15T20:08:43.504Z,8.79
2023-04-15T20:11:11.441Z,8.81
2023-04-15T20:13:42.984Z,8.80
2023-04-15T20:16:11.946Z,8.79
2023-04-15T20:18:39.768Z,8.79
2023-04-15T20:21:08.113Z,8.79
2023-04-15T20:23:36.283Z,8.79
2023-04-15T20:26:04.104Z,8.78
2023-04-15T20:28:31.913Z,8.77
2023-04-15T20:30:59.824Z,8.74
2023-04-15T20:33:28.473Z,8.77
2023-04-15T20:35:56.322Z,8.79
2023-04-15T20:38:24.302Z,8.77
2023-04-15T20:40:52.607Z,8.76
2023-04-15T20:43:21.865Z,8.76
2023-04-15T20:45:50.578Z,8.77
2023-04-15T20:48:19.437Z,8.79
2023-04-15T20:50:47.372Z,8.80
2023-04-15T20:53:15.251Z,8.80
2023-04-15T20:55:43.789Z,8.80
2023-04-15T20:58:11.671Z,8.79
2023-04-15T21:00:40.376Z,8.80
2023-04-15T21:03:08.396Z,8.83
2023-04-15T21:05:36.509Z,8.84
2023-04-15T21:08:04.420Z,8.84
2023-04-15T21:10:35.458Z,8.83
2023-04-15T21:13:03.299Z,8.83
2023-04-15T21:15:31.154Z,8.83
2023-04-15T21:17:59.052Z,8.81
2023-04-15T21:20:27.397Z,8.80
2023-04-15T21:22:55.826Z,8.82
2023-04-15T21:25:23.924Z,8.81
2023-04-15T21:27:51.810Z,8.80
2023-04-15T21:30:19.693Z,8.80
2023-04-15T21:32:47.476Z,8.80
2023-04-15T21:35:15.716Z,8.79
2023-04-15T21:37:43.658Z,8.78
2023-04-15T21:40:11.834Z,8.77
2023-04-15T21:42:39.607Z,8.77
2023-04-15T21:45:07.475Z,8.77
2023-04-15T21:48:04.196Z,8.76
2023-04-15T21:50:24.390Z,8.76
2023-04-15T21:52:52.251Z,8.76
2023-04-15T21:55:21.385Z,8.77
2023-04-15T21:57:49.943Z,8.76
2023-04-15T22:00:17.843Z,8.77
2023-04-15T22:02:45.789Z,8.77
2023-04-15T22:05:13.936Z,8.77
2023-04-15T22:07:42.358Z,8.79
2023-04-15T22:10:10.828Z,8.79
2023-04-15T22:12:38.537Z,8.79
2023-04-15T22:15:06.269Z,8.80
2023-04-15T22:17:34.396Z,8.80
2023-04-15T22:20:02.315Z,8.81
2023-04-15T22:22:43.489Z,8.79
2023-04-15T22:25:12.540Z,8.81
2023-04-15T22:27:40.303Z,8.81
2023-04-15T22:30:08.111Z,8.82
2023-04-15T22:32:36.609Z,8.82
2023-04-15T22:35:06.615Z,8.81
2023-04-15T22:37:34.469Z,8.81
2023-04-15T22:40:03.245Z,8.81
2023-04-15T22:42:30.990Z,8.83
2023-04-15T22:44:59.310Z,8.83
2023-04-15T22:47:27.262Z,8.83
2023-04-15T22:49:55.363Z,8.85
2023-04-15T22:52:29.983Z,8.84
2023-04-15T22:54:58.657Z,8.83
2023-04-15T22:57:28.426Z,8.81
2023-04-15T22:59:56.214Z,8.81
2023-04-15T23:02:24.248Z,8.80
2023-04-15T23:04:52.244Z,8.80
2023-04-15T23:07:19.925Z,8.81
2023-04-15T23:09:48.215Z,8.81
2023-04-15T23:12:15.970Z,8.80
2023-04-15T23:14:43.682Z,8.80
2023-04-15T23:17:11.470Z,8.80
2023-04-15T23:19:39.127Z,8.78
2023-04-15T23:22:07.590Z,8.76
2023-04-15T23:24:35.468Z,8.78
2023-04-15T23:27:03.148Z,8.78
2023-04-15T23:29:30.888Z,8.78
2023-04-15T23:31:58.643Z,8.78
2023-04-15T23:34:26.429Z,8.79
2023-04-15T23:36:54.159Z,8.81
2023-04-15T23:39:22.025Z,8.81
2023-04-15T23:41:49.677Z,8.80
2023-04-15T23:44:17.311Z,8.82
2023-04-15T23:46:45.097Z,8.81
2023-04-15T23:49:12.874Z,8.80
2023-04-15T23:51:40.570Z,8.80
2023-04-15T23:54:08.695Z,8.80
2023-04-15T23:56:36.542Z,8.80
2023-04-15T23:59:04.854Z,8.79
